createdAt,value
2022-10-12T04:16:40.410Z,100880.75
2022-10-12T04:19:06.848Z,100880.81
2022-10-12T04:21:33.316Z,100884.28
2022-10-12T04:24:00.809Z,100885.16
2022-10-12T04:26:27.258Z,100886.91
2022-10-12T04:28:54.171Z,100886.03
2022-10-12T04:31:20.828Z,100886.81
2022-10-12T04:33:53.111Z,100886.88
2022-10-12T04:36:19.610Z,100897.31
2022-10-12T04:38:49.402Z,100892.97
2022-10-12T04:41:16.105Z,100894.69
2022-10-12T04:43:50.626Z,100889.47
2022-10-12T04:46:17.131Z,100892.09
2022-10-12T04:48:49.053Z,100893.84
2022-10-12T04:52:19.391Z,100896.47
2022-10-12T04:54:45.977Z,100898.22
2022-10-12T04:57:12.491Z,100894.69
2022-10-12T04:59:39.260Z,100898.16
2022-10-12T05:02:06.309Z,100894.63
2022-10-12T05:04:32.895Z,100899.88
2022-10-12T05:07:25.021Z,100898.97
2022-10-12T05:09:51.446Z,100899.88
2022-10-12T05:12:17.882Z,100899.00
2022-10-12T05:14:44.470Z,100895.56
2022-10-12T05:17:11.501Z,100892.94
2022-10-12T05:19:38.072Z,100893.75
2022-10-12T05:22:04.507Z,100896.28
2022-10-12T05:24:31.107Z,100892.75
2022-10-12T05:26:57.545Z,100889.31
2022-10-12T05:29:23.988Z,100891.94
2022-10-12T05:31:50.661Z,100885.78
2022-10-12T05:34:17.093Z,100886.63
2022-10-12T05:36:43.522Z,100887.47
2022-10-12T05:39:09.995Z,100884.88
2022-10-12T05:41:36.525Z,100889.25
2022-10-12T05:44:02.998Z,100895.34
2022-10-12T05:46:29.422Z,100891.84
2022-10-12T05:48:55.896Z,100890.94
2022-10-12T05:51:26.536Z,100889.22
2022-10-12T05:53:55.113Z,100892.69
2022-10-12T05:56:21.540Z,100897.91
2022-10-12T05:58:48.091Z,100893.59
2022-10-12T06:01:14.657Z,100898.84
2022-10-12T06:03:41.135Z,100897.13
2022-10-12T06:06:15.637Z,100893.66
2022-10-12T06:08:42.111Z,100896.25
2022-10-12T06:17:57.995Z,100896.31
2022-10-12T06:21:08.676Z,100890.25
2022-10-12T06:24:22.478Z,100889.34
2022-10-12T06:26:49.577Z,100894.56
2022-10-12T06:29:16.133Z,100895.44
2022-10-12T06:32:13.487Z,100897.25
2022-10-12T06:34:40.012Z,100892.97
2022-10-12T06:37:49.149Z,100899.91
2022-10-12T06:40:17.397Z,100902.53
2022-10-12T06:42:43.911Z,100898.22
2022-10-12T06:45:11.892Z,100895.63
2022-10-12T06:47:38.559Z,100900.03
2022-10-12T06:50:21.590Z,100901.78
2022-10-12T06:52:48.092Z,100894.81
2022-10-12T06:55:14.629Z,100898.31
2022-10-12T06:57:41.185Z,100904.44
2022-10-12T07:00:08.784Z,100900.13
2022-10-12T07:02:36.015Z,100894.94
2022-10-12T07:05:03.407Z,100902.81
2022-10-12T07:07:34.372Z,100900.22
2022-10-12T07:10:01.218Z,100896.75
2022-10-12T07:12:27.877Z,100897.63
2022-10-12T07:14:58.371Z,100894.16
2022-10-12T07:17:24.818Z,100895.03
2022-10-12T07:19:56.947Z,100902.03
2022-10-12T07:22:23.514Z,100903.78
2022-10-12T07:24:56.659Z,100906.38
2022-10-12T07:27:23.664Z,100911.59
2022-10-12T07:29:50.911Z,100896.75
2022-10-12T07:32:17.440Z,100910.72
2022-10-12T07:34:46.103Z,100907.25
2022-10-12T07:37:13.272Z,100910.72
2022-10-12T07:39:41.424Z,100912.44
2022-10-12T07:46:32.344Z,100907.22
2022-10-12T07:49:04.944Z,100913.31
2022-10-12T07:51:31.407Z,100909.81
2022-10-12T07:54:00.156Z,100915.91
2022-10-12T07:56:27.053Z,100915.88
2022-10-12T07:58:56.222Z,100910.63
2022-10-12T08:01:24.953Z,100917.56
2022-10-12T08:03:56.323Z,100913.22
2022-10-12T08:06:27.521Z,100908.78
2022-10-12T08:08:54.267Z,100914.03
2022-10-12T08:11:21.941Z,100914.81
2022-10-12T08:13:48.873Z,100913.88
2022-10-12T08:16:18.825Z,100912.97
2022-10-12T08:18:45.489Z,100910.31
2022-10-12T08:21:37.694Z,100915.47
2022-10-12T08:24:04.300Z,100911.94
2022-10-12T08:26:30.914Z,100906.63
2022-10-12T08:28:57.530Z,100916.19
2022-10-12T08:31:24.033Z,100906.53
2022-10-12T08:33:53.803Z,100903.75
2022-10-12T08:36:20.402Z,100901.88
2022-10-12T08:38:53.849Z,100899.13
2022-10-12T08:41:28.877Z,100896.56
2022-10-12T08:44:20.833Z,100902.56
2022-10-12T08:47:21.167Z,100907.63
2022-10-12T08:49:50.550Z,100902.22
2022-10-12T08:52:31.932Z,100907.31
2022-10-12T08:55:07.156Z,100905.47
2022-10-12T08:57:36.488Z,100902.75
2022-10-12T09:00:04.247Z,100904.44
2022-10-12T09:03:00.428Z,100900.00
2022-10-12T09:05:26.803Z,100902.53
2022-10-12T09:08:00.344Z,100897.97
2022-10-12T09:10:37.998Z,100899.56
2022-10-12T09:17:04.757Z,100900.63
2022-10-12T09:19:36.882Z,100903.06
2022-10-12T09:22:05.998Z,100900.28
2022-10-12T09:24:36.781Z,100898.56
2022-10-12T09:27:15.226Z,100900.03
2022-10-12T09:29:46.564Z,100906.06
2022-10-12T09:32:50.667Z,100900.59
2022-10-12T09:35:17.578Z,100893.09
2022-10-12T09:37:52.471Z,100892.16
2022-10-12T09:40:33.085Z,100884.63
2022-10-12T09:43:02.447Z,100883.50
2022-10-12T09:45:32.912Z,100892.94
2022-10-12T09:48:19.041Z,100887.47
2022-10-12T09:51:00.330Z,100887.56
2022-10-12T09:53:32.984Z,100881.59
2022-10-12T09:56:09.707Z,100881.66
2022-10-12T09:58:58.622Z,100875.75
2022-10-12T10:01:29.992Z,100876.84
2022-10-12T10:04:23.138Z,100873.03
2022-10-12T10:06:50.727Z,100876.66
2022-10-12T10:09:32.792Z,100878.41
2022-10-12T10:12:13.657Z,100871.94
2022-10-12T10:14:44.006Z,100877.22
2022-10-12T10:17:20.364Z,100875.16
2022-10-12T10:19:54.870Z,100873.13
2022-10-12T10:22:23.588Z,100873.22
2022-10-12T10:25:01.153Z,100872.06
2022-10-12T10:27:39.829Z,100871.69
2022-10-12T10:30:29.485Z,100868.47
2022-10-12T10:33:14.606Z,100871.16
2022-10-12T10:35:41.778Z,100870.13
2022-10-12T10:38:15.733Z,100871.25
2022-10-12T10:40:42.071Z,100862.91
2022-10-12T10:43:21.497Z,100863.03
2022-10-12T10:45:53.159Z,100859.63
2022-10-12T10:48:26.827Z,100856.44
2022-10-12T10:51:00.904Z,100856.81
2022-10-12T10:53:32.907Z,100854.53
2022-10-12T10:56:14.247Z,100851.97
2022-10-12T10:58:50.091Z,100855.22
2022-10-12T11:01:22.872Z,100843.38
2022-10-12T11:03:56.478Z,100842.16
2022-10-12T11:06:42.545Z,100839.63
2022-10-12T11:09:20.376Z,100839.94
2022-10-12T11:11:58.483Z,100842.66
2022-10-12T11:14:45.813Z,100836.84
2022-10-12T11:17:32.975Z,100831.22
2022-10-12T11:20:25.233Z,100833.22
2022-10-12T11:23:01.629Z,100829.06
2022-10-12T11:25:39.886Z,100821.94
2022-10-12T11:28:08.050Z,100824.41
2022-10-12T11:30:47.321Z,100816.72
2022-10-12T11:33:26.235Z,100823.50
2022-10-12T11:35:54.741Z,100818.03
2022-10-12T11:38:32.751Z,100807.78
2022-10-12T11:41:34.356Z,100812.91
2022-10-12T11:44:05.958Z,100810.00
2022-10-12T11:46:40.107Z,100808.34
2022-10-12T11:49:32.426Z,100812.06
2022-10-12T11:52:05.700Z,100802.59
2022-10-12T11:54:35.075Z,100803.78
2022-10-12T11:57:26.525Z,100793.13
2022-10-12T11:59:59.712Z,100791.22
2022-10-12T12:02:41.190Z,100777.31
2022-10-12T12:05:16.748Z,100775.78
2022-10-12T12:07:54.521Z,100776.50
2022-10-12T12:10:37.051Z,100772.59
2022-10-12T12:13:13.057Z,100779.38
2022-10-12T12:15:41.379Z,100770.31
2022-10-12T12:18:13.028Z,100772.75
2022-10-12T12:20:42.730Z,100767.91
2022-10-12T12:23:32.987Z,100760.09
2022-10-12T12:26:20.145Z,100757.63
2022-10-12T12:28:48.607Z,100750.47
2022-10-12T12:31:24.100Z,100755.06
2022-10-12T12:34:06.889Z,100759.06
2022-10-12T12:36:33.205Z,100745.25
2022-10-12T12:39:01.559Z,100742.06
2022-10-12T12:41:55.179Z,100737.41
2022-10-12T12:44:33.601Z,100743.25
2022-10-12T12:46:59.954Z,100735.22
2022-10-12T12:49:45.463Z,100738.66
2022-10-12T12:52:24.840Z,100737.28
2022-10-12T12:54:57.400Z,100736.50
2022-10-12T12:57:35.227Z,100738.50
2022-10-12T13:00:06.503Z,100747.13
2022-10-12T13:03:02.699Z,100745.72
2022-10-12T13:06:06.412Z,100743.56
2022-10-12T13:09:02.386Z,100730.66
2022-10-12T13:11:40.316Z,100725.56
2022-10-12T13:14:13.670Z,100724.72
2022-10-12T13:19:44.353Z,100716.13
2022-10-12T13:22:26.152Z,100712.03
2022-10-12T13:24:59.634Z,100713.84
2022-10-12T13:28:35.501Z,100708.19
2022-10-12T13:31:16.512Z,100709.19
2022-10-12T13:33:55.657Z,100696.59
2022-10-12T13:36:28.436Z,100697.28
2022-10-12T13:38:59.817Z,100695.44
2022-10-12T13:41:37.136Z,100700.09
2022-10-12T13:44:07.246Z,100698.63
2022-10-12T13:47:01.192Z,100691.56
2022-10-12T13:49:29.416Z,100698.81
2022-10-12T13:52:00.419Z,100696.47
2022-10-12T13:54:39.716Z,100692.59
2022-10-12T13:57:31.756Z,100689.22
2022-10-12T14:00:02.879Z,100691.88
2022-10-12T14:02:31.856Z,100684.94
2022-10-12T14:05:02.898Z,100692.78
2022-10-12T14:07:37.480Z,100686.06
2022-10-12T14:10:31.308Z,100694.47
2022-10-12T14:12:58.516Z,100693.97
2022-10-12T14:15:27.739Z,100697.38
2022-10-12T14:17:54.874Z,100700.16
2022-10-12T14:20:38.512Z,100699.34
2022-10-12T14:23:18.683Z,100698.22
2022-10-12T14:25:55.742Z,100694.84
2022-10-12T14:28:37.654Z,100692.91
2022-10-12T14:31:04.242Z,100690.28
2022-10-12T14:33:32.577Z,100683.28
2022-10-12T14:36:20.845Z,100677.78
2022-10-12T14:39:13.478Z,100681.56
2022-10-12T14:41:52.440Z,100671.63
2022-10-12T14:44:21.935Z,100671.28
2022-10-12T14:47:01.435Z,100668.94
2022-10-12T14:49:46.552Z,100653.66
2022-10-12T14:52:23.412Z,100662.75
2022-10-12T14:54:58.348Z,100656.81
2022-10-12T14:57:28.020Z,100665.19
2022-10-12T14:59:59.834Z,100664.41
2022-10-12T15:02:31.793Z,100659.34
2022-10-12T15:04:59.432Z,100660.38
2022-10-12T15:07:32.727Z,100666.19
2022-10-12T15:10:08.360Z,100669.03
2022-10-12T15:12:35.208Z,100682.56
2022-10-12T15:15:14.963Z,100684.56
2022-10-12T15:17:41.538Z,100678.78
2022-10-12T15:20:09.382Z,100675.50
2022-10-12T15:22:35.841Z,100667.84
2022-10-12T15:25:02.343Z,100667.25
2022-10-12T15:27:37.897Z,100667.91
2022-10-12T15:30:04.825Z,100668.13
2022-10-12T15:32:33.553Z,100665.91
2022-10-12T15:35:00.248Z,100653.66
2022-10-12T15:37:31.689Z,100657.81
2022-10-12T15:39:58.428Z,100652.56
2022-10-12T15:42:25.261Z,100648.56
2022-10-12T15:45:01.550Z,100644.94
2022-10-12T15:47:35.513Z,100646.50
2022-10-12T15:50:02.064Z,100647.50
2022-10-12T15:52:28.526Z,100643.50
2022-10-12T15:54:55.923Z,100641.28
2022-10-12T15:57:25.578Z,100635.94
2022-10-12T15:59:53.344Z,100633.47
2022-10-12T16:02:27.185Z,100644.28
2022-10-12T16:04:53.572Z,100647.94
2022-10-12T16:07:20.065Z,100634.66
2022-10-12T16:09:46.514Z,100637.72
2022-10-12T16:12:13.034Z,100632.41
2022-10-12T16:14:39.736Z,100625.97
2022-10-12T16:17:06.211Z,100629.09
2022-10-12T16:19:36.490Z,100629.28
2022-10-12T16:22:04.784Z,100630.56
2022-10-12T16:25:02.047Z,100625.09
2022-10-12T16:27:29.421Z,100627.72
2022-10-12T16:29:55.980Z,100628.38
2022-10-12T16:32:22.401Z,100627.81
2022-10-12T16:34:48.816Z,100636.94
2022-10-12T16:37:15.639Z,100637.91
2022-10-12T16:39:42.280Z,100628.13
2022-10-12T16:42:08.762Z,100627.66
2022-10-12T16:44:35.264Z,100621.63
2022-10-12T16:47:08.077Z,100634.50
2022-10-12T16:49:37.670Z,100640.56
2022-10-12T16:52:09.973Z,100647.75
2022-10-12T16:54:53.422Z,100647.97
2022-10-12T16:57:30.803Z,100639.72
2022-10-12T17:00:15.415Z,100632.56
2022-10-12T17:03:03.855Z,100643.91
2022-10-12T17:05:30.733Z,100642.34
2022-10-12T17:07:59.047Z,100634.00
2022-10-12T17:10:45.437Z,100641.13
2022-10-12T17:13:36.069Z,100638.75
2022-10-12T17:16:29.159Z,100637.84
2022-10-12T17:19:11.637Z,100652.34
2022-10-12T17:21:43.990Z,100644.28
2022-10-12T17:24:16.741Z,100650.28
2022-10-12T17:26:46.630Z,100650.78
2022-10-12T17:29:31.648Z,100646.13
2022-10-12T17:32:09.436Z,100646.75
2022-10-12T17:34:48.055Z,100647.63
2022-10-12T17:37:21.000Z,100649.69
2022-10-12T17:39:58.207Z,100644.81
2022-10-12T17:42:38.571Z,100647.53
2022-10-12T17:45:22.942Z,100648.59
2022-10-12T17:47:56.822Z,100661.44
2022-10-12T17:50:33.200Z,100658.56
2022-10-12T17:53:12.216Z,100665.38
2022-10-12T17:55:58.832Z,100661.22
2022-10-12T17:58:25.726Z,100660.59
2022-10-12T18:00:52.316Z,100662.69
2022-10-12T18:03:40.319Z,100656.88
2022-10-12T18:06:19.813Z,100654.53
2022-10-12T18:09:13.974Z,100647.63
2022-10-12T18:11:46.390Z,100646.91
2022-10-12T18:14:25.876Z,100654.16
2022-10-12T18:17:24.470Z,100652.03
2022-10-12T18:20:00.095Z,100655.03
2022-10-12T18:26:32.938Z,100650.41
2022-10-12T18:29:28.850Z,100655.66
2022-10-12T18:32:03.211Z,100662.91
2022-10-12T18:34:39.417Z,100661.25
2022-10-12T18:37:18.003Z,100651.31
2022-10-12T18:39:58.320Z,100651.41
2022-10-12T18:42:43.580Z,100649.13
2022-10-12T18:45:14.722Z,100654.97
2022-10-12T18:47:49.311Z,100647.59
2022-10-12T18:50:16.385Z,100644.03
2022-10-12T18:52:46.309Z,100637.97
2022-10-12T18:55:12.980Z,100639.03
2022-10-12T18:57:46.155Z,100647.00
2022-10-12T19:00:13.004Z,100640.91
2022-10-12T19:02:39.662Z,100638.25
2022-10-12T19:05:15.628Z,100634.09
2022-10-12T19:07:45.193Z,100640.13
2022-10-12T19:10:11.817Z,100646.66
2022-10-12T19:12:42.159Z,100641.75
2022-10-12T19:15:17.142Z,100647.13
2022-10-12T19:18:01.075Z,100650.66
2022-10-12T19:20:27.889Z,100651.09
2022-10-12T19:22:54.386Z,100653.75
2022-10-12T19:25:21.683Z,100648.63
2022-10-12T19:27:48.121Z,100639.75
2022-10-12T19:30:14.594Z,100654.13
2022-10-12T19:32:42.824Z,100653.34
2022-10-12T19:39:09.825Z,100661.59
2022-10-12T19:41:36.373Z,100657.28
2022-10-12T19:44:03.635Z,100644.59
2022-10-12T19:46:30.371Z,100650.59
2022-10-12T19:48:58.532Z,100653.25
2022-10-12T19:51:27.165Z,100656.03
2022-10-12T19:53:57.693Z,100650.66
2022-10-12T19:56:24.450Z,100652.47
2022-10-12T19:58:52.530Z,100658.13
2022-10-12T20:01:22.409Z,100662.53
2022-10-12T20:03:50.539Z,100664.03
2022-10-12T20:06:18.682Z,100659.59
2022-10-12T20:08:46.193Z,100663.69
2022-10-12T20:11:18.933Z,100664.59
2022-10-12T20:13:48.266Z,100663.69
2022-10-12T20:16:17.503Z,100666.09
2022-10-12T20:18:44.678Z,100666.31
2022-10-12T20:21:13.643Z,100665.50
2022-10-12T20:23:41.879Z,100663.69
2022-10-12T20:26:12.087Z,100658.19
2022-10-12T20:28:38.682Z,100652.94
2022-10-12T20:31:06.746Z,100660.00
2022-10-12T20:33:35.224Z,100662.13
2022-10-12T20:36:02.061Z,100651.22
2022-10-12T20:38:28.505Z,100645.91
2022-10-12T20:41:07.174Z,100656.47
2022-10-12T20:43:33.741Z,100650.28
2022-10-12T20:46:05.212Z,100645.13
2022-10-12T20:48:33.424Z,100651.41
2022-10-12T20:51:00.464Z,100652.41
2022-10-12T20:53:26.939Z,100651.66
2022-10-12T20:55:53.783Z,100648.16
2022-10-12T20:58:23.245Z,100650.31
2022-10-12T21:01:14.546Z,100659.13
2022-10-12T21:03:42.092Z,100656.84
2022-10-12T21:06:11.079Z,100659.34
2022-10-12T21:08:37.953Z,100656.78
2022-10-12T21:11:05.103Z,100655.47
2022-10-12T21:13:33.894Z,100660.88
2022-10-12T21:16:00.430Z,100657.69
2022-10-12T21:18:27.239Z,100651.44
2022-10-12T21:20:58.631Z,100653.69
2022-10-12T21:23:26.227Z,100650.94
2022-10-12T21:25:53.441Z,100641.28
2022-10-12T21:28:20.927Z,100651.81
2022-10-12T21:30:48.098Z,100648.31
2022-10-12T21:33:16.368Z,100647.53
2022-10-12T21:35:43.375Z,100648.69
2022-10-12T21:38:10.588Z,100645.38
2022-10-12T21:40:37.076Z,100645.59
2022-10-12T21:43:03.515Z,100646.53
2022-10-12T21:45:30.069Z,100637.03
2022-10-12T21:47:56.625Z,100637.97
2022-10-12T21:50:23.127Z,100628.44
2022-10-12T21:52:50.162Z,100637.34
2022-10-12T21:55:17.129Z,100645.38
2022-10-12T21:57:43.841Z,100644.53
